createdAt,value
2023-01-29T12:40:31.992Z,2.72
2023-01-29T12:41:32.870Z,2.78
2023-01-29T12:42:33.731Z,2.98
2023-01-29T12:43:34.609Z,3.14
2023-01-29T12:44:35.506Z,3.27
2023-01-29T12:45:36.441Z,3.24
2023-01-29T12:46:37.390Z,3.41
2023-01-29T12:47:38.572Z,3.01
2023-01-29T12:48:39.478Z,2.84
2023-01-29T12:49:40.351Z,3.09
2023-01-29T12:50:41.779Z,3.37
2023-01-29T12:51:42.657Z,3.33
2023-01-29T12:52:43.538Z,3.16
2023-01-29T12:53:44.415Z,2.98
2023-01-29T12:54:45.380Z,2.97
2023-01-29T12:55:46.272Z,3.19
2023-01-29T12:56:47.175Z,3.22
2023-01-29T12:57:48.069Z,3.28
2023-01-29T12:58:48.906Z,3.1
2023-01-29T12:59:49.730Z,3.02
2023-01-29T13:00:50.570Z,3
2023-01-29T13:01:52.149Z,2.91
2023-01-29T13:02:52.995Z,3.31
2023-01-29T13:03:54.348Z,3.49
2023-01-29T13:04:55.262Z,3.52
2023-01-29T13:05:56.070Z,3.01
2023-01-29T13:06:56.901Z,2.84
2023-01-29T13:07:57.750Z,3.2
2023-01-29T13:08:58.595Z,2.94
2023-01-29T13:09:59.451Z,2.98
2023-01-29T13:11:00.335Z,3.08
2023-01-29T13:12:01.167Z,3.04
2023-01-29T13:13:02.025Z,3.27
2023-01-29T13:14:02.957Z,3.24
2023-01-29T13:15:03.833Z,3.38
2023-01-29T13:16:04.786Z,3.47
2023-01-29T13:17:06.051Z,3.5
2023-01-29T13:18:06.919Z,3.43
2023-01-29T13:19:07.739Z,3.39
2023-01-29T13:20:08.584Z,3.32
2023-01-29T13:21:09.422Z,3.37
2023-01-29T13:22:10.272Z,3.26
2023-01-29T13:23:11.400Z,3.26
2023-01-29T13:24:12.208Z,3.55
2023-01-29T13:25:13.029Z,3.54
2023-01-29T13:26:14.241Z,3.43
2023-01-29T13:27:15.520Z,3.38
2023-01-29T13:28:16.352Z,3.54
2023-01-29T13:29:17.209Z,3.39
2023-01-29T13:30:18.265Z,3.39
2023-01-29T13:31:19.867Z,3.36
2023-01-29T13:32:20.758Z,3.33
2023-01-29T13:33:21.620Z,3.62
2023-01-29T13:34:22.445Z,3.88
2023-01-29T13:35:23.294Z,3.81
2023-01-29T13:36:24.203Z,3.82
2023-01-29T13:37:24.981Z,3.68
2023-01-29T13:38:25.817Z,3.78
2023-01-29T13:39:26.798Z,3.77
2023-01-29T13:40:27.671Z,3.62
2023-01-29T13:41:28.566Z,3.45
2023-01-29T13:42:29.419Z,3.57
2023-01-29T13:43:30.241Z,4.07
2023-01-29T13:44:31.074Z,4.05
2023-01-29T13:45:32.012Z,3.94
2023-01-29T13:46:32.868Z,4.2
2023-01-29T13:47:33.772Z,4.21
2023-01-29T13:48:34.603Z,3.94
2023-01-29T13:49:36.001Z,3.89
2023-01-29T13:50:36.866Z,3.83
2023-01-29T13:51:37.767Z,3.65
2023-01-29T13:52:38.623Z,3.55
2023-01-29T13:53:39.492Z,3.82
2023-01-29T13:54:40.307Z,3.75
2023-01-29T13:55:41.314Z,3.62
2023-01-29T13:56:42.242Z,3.61
2023-01-29T13:57:43.240Z,3.49
2023-01-29T13:58:44.187Z,3.68
2023-01-29T13:59:45.050Z,3.65
2023-01-29T14:00:45.871Z,3.64
2023-01-29T14:01:46.749Z,3.31
2023-01-29T14:02:47.901Z,3.36
2023-01-29T14:04:04.021Z,3.55
2023-01-29T14:04:50.979Z,3.65
2023-01-29T14:05:51.835Z,3.6
2023-01-29T14:06:52.718Z,3.68
2023-01-29T14:07:53.680Z,3.86
2023-01-29T14:08:54.497Z,3.88
2023-01-29T14:09:55.324Z,3.61
2023-01-29T14:10:56.154Z,3.25
2023-01-29T14:11:56.963Z,3.16
2023-01-29T14:12:57.781Z,3.14
2023-01-29T14:13:58.626Z,3.36
2023-01-29T14:14:59.476Z,3.7
2023-01-29T14:16:00.309Z,3.44
2023-01-29T14:17:01.169Z,3.19
2023-01-29T14:18:02.014Z,3.18
2023-01-29T14:19:02.957Z,3.34
2023-01-29T14:20:03.818Z,3.04
2023-01-29T14:21:04.748Z,3.21
2023-01-29T14:22:05.616Z,3.4
2023-01-29T14:23:06.496Z,3.54
2023-01-29T14:24:07.324Z,3.44
2023-01-29T14:25:08.160Z,3.3
2023-01-29T14:26:09.060Z,3.26
2023-01-29T14:27:10.017Z,3.27
2023-01-29T14:28:11.055Z,3.46
2023-01-29T14:29:14.408Z,3.39
2023-01-29T14:30:12.649Z,3.33
2023-01-29T14:31:13.651Z,3.48
2023-01-29T14:32:15.061Z,3.57
2023-01-29T14:33:15.885Z,3.56
2023-01-29T14:34:16.752Z,3.5
2023-01-29T14:35:17.847Z,3.55
2023-01-29T14:36:19.519Z,3.41
2023-01-29T14:37:20.387Z,3.41
2023-01-29T14:38:21.233Z,3.34
2023-01-29T14:39:22.057Z,3.43
2023-01-29T14:40:22.885Z,3.46
2023-01-29T14:41:23.777Z,3.43
2023-01-29T14:42:24.603Z,3.32
2023-01-29T14:43:25.812Z,3.26
2023-01-29T14:44:26.619Z,3.49
2023-01-29T14:45:27.432Z,3.44
2023-01-29T14:46:28.307Z,3.44
2023-01-29T14:47:29.488Z,3.38
2023-01-29T14:48:30.318Z,3.29
2023-01-29T14:49:31.147Z,3.29
2023-01-29T14:50:32.052Z,3.47
2023-01-29T14:51:32.940Z,3.67
2023-01-29T14:52:33.819Z,3.75
2023-01-29T14:53:34.631Z,3.6
2023-01-29T14:54:35.796Z,3.57
2023-01-29T14:55:36.640Z,3.66
2023-01-29T14:56:37.461Z,3.42
2023-01-29T14:57:38.303Z,3.56
2023-01-29T14:58:39.194Z,3.65
2023-01-29T14:59:41.153Z,3.53
2023-01-29T15:00:42.101Z,3.55
2023-01-29T15:01:42.964Z,3.76
2023-01-29T15:02:44.303Z,3.76
2023-01-29T15:03:45.690Z,3.87
2023-01-29T15:04:46.644Z,3.95
2023-01-29T15:05:47.441Z,3.9
2023-01-29T15:06:48.342Z,3.9
2023-01-29T15:07:49.490Z,4.15
2023-01-29T15:08:50.337Z,4.54
2023-01-29T15:09:51.154Z,5.23
2023-01-29T15:10:52.055Z,5.87
2023-01-29T15:11:52.906Z,6.25
2023-01-29T15:12:53.838Z,6.24
2023-01-29T15:13:54.801Z,6.45
2023-01-29T15:14:55.629Z,7.07
2023-01-29T15:15:56.451Z,7.67
2023-01-29T15:16:57.736Z,6.73
2023-01-29T15:17:58.096Z,6.46
2023-01-29T15:18:58.922Z,5.65
2023-01-29T15:19:59.742Z,5.52
2023-01-29T15:21:00.533Z,6.05
2023-01-29T15:22:01.319Z,6.83
2023-01-29T15:23:02.112Z,7.29
2023-01-29T15:24:02.932Z,6.63
2023-01-29T15:25:03.743Z,6.57
2023-01-29T15:26:04.567Z,6.54
2023-01-29T15:27:05.364Z,6.72
2023-01-29T15:28:06.168Z,6.65
2023-01-29T15:29:06.966Z,6.85
2023-01-29T15:30:07.793Z,6.66
2023-01-29T15:31:09.175Z,6.48
2023-01-29T15:32:10.487Z,5.89
2023-01-29T15:33:11.295Z,5.08
2023-01-29T15:34:12.256Z,4.54
2023-01-29T15:35:13.083Z,4.18
2023-01-29T15:36:13.877Z,3.9
2023-01-29T15:37:14.674Z,3.91
2023-01-29T15:38:15.488Z,3.99
2023-01-29T15:39:16.309Z,4
2023-01-29T15:40:17.128Z,3.85
2023-01-29T15:41:17.955Z,3.87
2023-01-29T15:42:18.776Z,3.79
2023-01-29T15:43:19.590Z,3.79
2023-01-29T15:44:20.386Z,3.76
2023-01-29T15:45:21.199Z,3.58
2023-01-29T15:46:22.008Z,3.52
2023-01-29T15:47:22.846Z,3.34
2023-01-29T15:48:23.940Z,3.27
2023-01-29T15:49:24.761Z,3.27
2023-01-29T15:50:25.610Z,3.38
2023-01-29T15:51:26.435Z,3.36
2023-01-29T15:52:27.254Z,3.24
2023-01-29T15:53:28.019Z,3.28
2023-01-29T15:54:28.857Z,3.35
2023-01-29T15:55:29.728Z,3.32
2023-01-29T15:56:30.526Z,3.15
2023-01-29T15:57:31.332Z,3.1
2023-01-29T15:58:32.162Z,3.15
2023-01-29T15:59:32.962Z,3.03
2023-01-29T16:00:33.960Z,2.95
2023-01-29T16:01:34.773Z,2.91
2023-01-29T16:02:35.970Z,2.82
2023-01-29T16:03:36.967Z,2.88
2023-01-29T16:04:37.798Z,2.89
2023-01-29T16:05:38.596Z,2.8
2023-01-29T16:06:39.397Z,2.71
2023-01-29T16:07:40.201Z,2.76
2023-01-29T16:08:41.030Z,2.6
2023-01-29T16:09:41.854Z,2.59
2023-01-29T16:10:42.679Z,2.53
2023-01-29T16:11:43.521Z,2.38
2023-01-29T16:12:44.314Z,2.43
2023-01-29T16:13:45.120Z,2.41
2023-01-29T16:14:46.081Z,2.43
2023-01-29T16:15:46.962Z,2.46
2023-01-29T16:16:48.010Z,2.53
2023-01-29T16:17:49.189Z,2.49
2023-01-29T16:18:59.435Z,2.48
2023-01-29T16:19:52.783Z,2.41
2023-01-29T16:20:53.594Z,2.39
2023-01-29T16:21:54.434Z,2.42
2023-01-29T16:22:55.248Z,2.38
2023-01-29T16:23:56.053Z,2.26
2023-01-29T16:24:56.884Z,2.18
2023-01-29T16:25:57.723Z,2.22
2023-01-29T16:26:58.558Z,2.21
2023-01-29T16:27:59.406Z,2.21
2023-01-29T16:29:00.242Z,2.25
2023-01-29T16:30:01.083Z,2.21
2023-01-29T16:31:04.234Z,2.28
2023-01-29T16:32:02.927Z,2.27
2023-01-29T16:33:04.604Z,2.33
2023-01-29T16:34:05.542Z,2.3
2023-01-29T16:35:06.373Z,2.22
2023-01-29T16:36:07.181Z,2.2
2023-01-29T16:37:08.011Z,2.29
2023-01-29T16:38:08.872Z,2.32
2023-01-29T16:39:09.695Z,2.43
2023-01-29T16:40:10.534Z,2.31
2023-01-29T16:41:11.348Z,2.42
2023-01-29T16:42:12.144Z,2.38
2023-01-29T16:43:13.143Z,2.45
2023-01-29T16:44:13.925Z,2.39
2023-01-29T16:45:15.106Z,2.31
2023-01-29T16:46:17.214Z,2.27
2023-01-29T16:47:18.206Z,2.39
2023-01-29T16:48:19.001Z,2.38
2023-01-29T16:49:19.811Z,2.36
2023-01-29T16:50:20.618Z,2.25
2023-01-29T16:51:21.461Z,2.17
2023-01-29T16:52:22.277Z,2.13
2023-01-29T16:53:23.114Z,2.07
2023-01-29T16:54:24.185Z,1.95
2023-01-29T16:55:24.981Z,1.79
2023-01-29T16:56:25.827Z,1.65
2023-01-29T16:57:26.654Z,1.63
2023-01-29T16:58:27.450Z,1.63
2023-01-29T16:59:28.253Z,1.64
2023-01-29T17:00:29.083Z,1.64
2023-01-29T17:01:30.157Z,1.65
2023-01-29T17:02:30.964Z,1.58
2023-01-29T17:03:31.811Z,1.51
2023-01-29T17:04:32.810Z,1.52
2023-01-29T17:05:33.613Z,1.47
2023-01-29T17:06:34.445Z,1.5
2023-01-29T17:07:35.289Z,1.57
2023-01-29T17:08:36.058Z,1.59
2023-01-29T17:09:36.883Z,1.62
2023-01-29T17:10:37.715Z,1.57
2023-01-29T17:11:38.504Z,1.58
2023-01-29T17:12:39.337Z,1.62
2023-01-29T17:13:40.142Z,1.58
2023-01-29T17:14:40.934Z,1.5
2023-01-29T17:15:41.733Z,1.51
2023-01-29T17:16:42.547Z,1.48
2023-01-29T17:17:43.376Z,1.4
2023-01-29T17:18:44.179Z,1.32
2023-01-29T17:19:45.125Z,1.34
2023-01-29T17:20:45.914Z,1.32
2023-01-29T17:21:46.720Z,1.31
2023-01-29T17:22:47.564Z,1.3
2023-01-29T17:23:48.395Z,1.32
2023-01-29T17:24:49.235Z,1.33
2023-01-29T17:25:50.049Z,1.21
2023-01-29T17:26:50.871Z,1.28
2023-01-29T17:27:51.661Z,1.38
2023-01-29T17:28:52.490Z,1.37
2023-01-29T17:29:53.671Z,1.4
2023-01-29T17:31:05.677Z,1.5
